Terminal Aerodrome Forecast
Issued by NWS

Home | Current Version | Previous Version | Text Only | Print | Product List | Glossary On
Versions: 1 2 3 4 5 6 7 8 9 10 11 12 13 14 15 16 17 18 19 20 21 22 23 24 25 26 27 28 29
000
FTUS41 KBOX 271137
TAFBED
TAF
KBED 271137Z 2712/2812 01023G32KT 1/2SM SN FZFG OVC005
     FM271400 01024G36KT 1/4SM +SN FZFG OVC003
     FM271800 36024G34KT 1/2SM SN FZFG OVC008
     FM280000 34019G33KT 3/4SM -SN BR OVC008
     FM280400 33015G28KT P6SM OVC015
     FM280900 32012G20KT P6SM OVC025=

USA.gov is the U.S. government's official web portal to all federal, state and local government web resources and services.